sensor_id;sensor_type;location;lat;lon;timestamp;P1;durP1;ratioP1;P2;durP2;ratioP2
11414;SDS011;5763;42.714;23.244;2022-07-18T00:01:48;2.28;;;1.45;;
11414;SDS011;5763;42.714;23.244;2022-07-18T00:04:15;2.15;;;1.70;;
11414;SDS011;5763;42.714;23.244;2022-07-18T00:06:42;2.38;;;1.50;;
11414;SDS011;5763;42.714;23.244;2022-07-18T00:09:08;1.95;;;1.60;;
11414;SDS011;5763;42.714;23.244;2022-07-18T00:11:35;1.73;;;1.40;;
11414;SDS011;5763;42.714;23.244;2022-07-18T00:14:02;2.58;;;1.58;;
11414;SDS011;5763;42.714;23.244;2022-07-18T00:16:29;1.85;;;1.10;;
11414;SDS011;5763;42.714;23.244;2022-07-18T00:18:58;1.67;;;1.58;;
11414;SDS011;5763;42.714;23.244;2022-07-18T00:21:25;3.50;;;1.45;;
11414;SDS011;5763;42.714;23.244;2022-07-18T00:23:52;6.07;;;1.75;;
11414;SDS011;5763;42.714;23.244;2022-07-18T00:26:19;3.67;;;1.65;;
11414;SDS011;5763;42.714;23.244;2022-07-18T00:28:46;3.00;;;1.65;;
11414;SDS011;5763;42.714;23.244;2022-07-18T00:31:12;1.60;;;1.50;;
11414;SDS011;5763;42.714;23.244;2022-07-18T00:33:39;2.10;;;1.52;;
11414;SDS011;5763;42.714;23.244;2022-07-18T00:36:08;1.88;;;1.48;;
11414;SDS011;5763;42.714;23.244;2022-07-18T00:38:34;3.30;;;1.50;;
11414;SDS011;5763;42.714;23.244;2022-07-18T00:41:01;1.38;;;1.27;;
11414;SDS011;5763;42.714;23.244;2022-07-18T00:43:28;2.70;;;1.55;;
11414;SDS011;5763;42.714;23.244;2022-07-18T00:45:55;2.40;;;1.50;;
11414;SDS011;5763;42.714;23.244;2022-07-18T00:48:22;1.45;;;1.25;;
11414;SDS011;5763;42.714;23.244;2022-07-18T00:50:49;1.30;;;1.05;;
11414;SDS011;5763;42.714;23.244;2022-07-18T00:53:17;1.35;;;1.10;;
11414;SDS011;5763;42.714;23.244;2022-07-18T00:55:45;1.95;;;1.40;;
11414;SDS011;5763;42.714;23.244;2022-07-18T00:58:12;2.83;;;1.42;;
11414;SDS011;5763;42.714;23.244;2022-07-18T01:00:40;2.53;;;1.40;;
11414;SDS011;5763;42.714;23.244;2022-07-18T01:03:24;2.25;;;1.40;;
11414;SDS011;5763;42.714;23.244;2022-07-18T01:05:51;2.10;;;1.15;;
11414;SDS011;5763;42.714;23.244;2022-07-18T01:08:19;1.85;;;1.30;;
11414;SDS011;5763;42.714;23.244;2022-07-18T01:10:46;2.40;;;1.27;;
11414;SDS011;5763;42.714;23.244;2022-07-18T01:13:13;2.03;;;1.00;;
11414;SDS011;5763;42.714;23.244;2022-07-18T01:15:40;1.25;;;1.15;;
11414;SDS011;5763;42.714;23.244;2022-07-18T01:18:07;2.38;;;1.10;;
11414;SDS011;5763;42.714;23.244;2022-07-18T01:20:35;2.90;;;1.30;;
11414;SDS011;5763;42.714;23.244;2022-07-18T01:23:02;1.50;;;1.10;;
11414;SDS011;5763;42.714;23.244;2022-07-18T01:25:29;2.03;;;1.33;;
11414;SDS011;5763;42.714;23.244;2022-07-18T01:27:56;2.20;;;1.20;;
11414;SDS011;5763;42.714;23.244;2022-07-18T01:30:23;2.38;;;1.40;;
11414;SDS011;5763;42.714;23.244;2022-07-18T01:32:54;1.38;;;1.00;;
11414;SDS011;5763;42.714;23.244;2022-07-18T01:35:21;1.35;;;1.05;;
11414;SDS011;5763;42.714;23.244;2022-07-18T01:37:50;1.45;;;1.00;;
11414;SDS011;5763;42.714;23.244;2022-07-18T01:40:17;1.38;;;1.15;;
11414;SDS011;5763;42.714;23.244;2022-07-18T01:42:44;1.92;;;1.02;;
11414;SDS011;5763;42.714;23.244;2022-07-18T01:45:11;1.83;;;1.20;;
11414;SDS011;5763;42.714;23.244;2022-07-18T01:47:38;1.40;;;1.20;;
11414;SDS011;5763;42.714;23.244;2022-07-18T01:50:05;1.52;;;1.10;;
11414;SDS011;5763;42.714;23.244;2022-07-18T01:52:33;2.28;;;1.20;;
11414;SDS011;5763;42.714;23.244;2022-07-18T01:55:01;1.88;;;1.20;;
11414;SDS011;5763;42.714;23.244;2022-07-18T01:57:27;2.63;;;0.98;;
11414;SDS011;5763;42.714;23.244;2022-07-18T01:59:54;3.97;;;1.27;;
11414;SDS011;5763;42.714;23.244;2022-07-18T02:02:21;1.63;;;0.93;;
11414;SDS011;5763;42.714;23.244;2022-07-18T02:04:48;1.63;;;1.23;;
11414;SDS011;5763;42.714;23.244;2022-07-18T02:07:29;0.93;;;0.88;;
11414;SDS011;5763;42.714;23.244;2022-07-18T02:09:57;1.75;;;1.10;;
11414;SDS011;5763;42.714;23.244;2022-07-18T02:12:26;1.38;;;1.10;;
11414;SDS011;5763;42.714;23.244;2022-07-18T02:14:53;1.17;;;1.05;;
11414;SDS011;5763;42.714;23.244;2022-07-18T02:17:19;1.88;;;1.40;;
11414;SDS011;5763;42.714;23.244;2022-07-18T02:19:46;1.60;;;1.20;;
11414;SDS011;5763;42.714;23.244;2022-07-18T02:22:13;1.92;;;1.02;;
11414;SDS011;5763;42.714;23.244;2022-07-18T02:24:41;1.98;;;1.20;;
11414;SDS011;5763;42.714;23.244;2022-07-18T02:27:07;1.30;;;1.20;;
11414;SDS011;5763;42.714;23.244;2022-07-18T02:29:36;2.65;;;1.05;;
11414;SDS011;5763;42.714;23.244;2022-07-18T02:32:03;1.00;;;0.98;;
11414;SDS011;5763;42.714;23.244;2022-07-18T02:34:30;2.40;;;1.20;;
11414;SDS011;5763;42.714;23.244;2022-07-18T02:36:57;2.67;;;1.10;;
11414;SDS011;5763;42.714;23.244;2022-07-18T02:39:24;2.55;;;0.95;;
11414;SDS011;5763;42.714;23.244;2022-07-18T02:41:50;2.83;;;1.10;;
11414;SDS011;5763;42.714;23.244;2022-07-18T02:44:17;2.25;;;1.00;;
11414;SDS011;5763;42.714;23.244;2022-07-18T02:46:46;1.42;;;1.20;;
11414;SDS011;5763;42.714;23.244;2022-07-18T02:49:13;1.38;;;1.00;;
11414;SDS011;5763;42.714;23.244;2022-07-18T02:51:52;1.27;;;0.95;;
11414;SDS011;5763;42.714;23.244;2022-07-18T02:54:19;1.85;;;1.00;;
11414;SDS011;5763;42.714;23.244;2022-07-18T02:56:46;2.55;;;1.08;;
11414;SDS011;5763;42.714;23.244;2022-07-18T02:59:13;1.60;;;1.15;;
11414;SDS011;5763;42.714;23.244;2022-07-18T03:01:39;2.85;;;1.30;;
11414;SDS011;5763;42.714;23.244;2022-07-18T03:04:08;1.45;;;0.90;;
11414;SDS011;5763;42.714;23.244;2022-07-18T03:06:34;1.95;;;1.25;;
11414;SDS011;5763;42.714;23.244;2022-07-18T03:09:02;1.67;;;1.30;;
11414;SDS011;5763;42.714;23.244;2022-07-18T03:11:29;1.15;;;0.90;;
11414;SDS011;5763;42.714;23.244;2022-07-18T03:13:56;2.20;;;1.00;;
11414;SDS011;5763;42.714;23.244;2022-07-18T03:16:23;2.03;;;1.10;;
11414;SDS011;5763;42.714;23.244;2022-07-18T03:18:50;1.65;;;1.05;;
11414;SDS011;5763;42.714;23.244;2022-07-18T03:21:18;1.20;;;1.10;;
11414;SDS011;5763;42.714;23.244;2022-07-18T03:23:45;2.30;;;1.17;;
11414;SDS011;5763;42.714;23.244;2022-07-18T03:26:12;2.92;;;1.67;;
11414;SDS011;5763;42.714;23.244;2022-07-18T03:28:38;1.10;;;1.00;;
11414;SDS011;5763;42.714;23.244;2022-07-18T03:31:05;1.20;;;1.10;;
11414;SDS011;5763;42.714;23.244;2022-07-18T03:33:32;2.33;;;1.15;;
11414;SDS011;5763;42.714;23.244;2022-07-18T03:35:59;2.03;;;1.20;;
11414;SDS011;5763;42.714;23.244;2022-07-18T03:38:27;1.13;;;0.90;;
11414;SDS011;5763;42.714;23.244;2022-07-18T03:40:54;2.75;;;1.10;;
11414;SDS011;5763;42.714;23.244;2022-07-18T03:43:20;1.27;;;1.17;;
11414;SDS011;5763;42.714;23.244;2022-07-18T03:45:47;1.20;;;1.10;;
11414;SDS011;5763;42.714;23.244;2022-07-18T03:48:14;2.30;;;1.33;;
11414;SDS011;5763;42.714;23.244;2022-07-18T03:50:41;2.28;;;1.38;;
11414;SDS011;5763;42.714;23.244;2022-07-18T03:53:08;1.50;;;1.10;;
11414;SDS011;5763;42.714;23.244;2022-07-18T03:55:36;1.33;;;0.95;;
11414;SDS011;5763;42.714;23.244;2022-07-18T03:58:03;2.35;;;1.40;;
11414;SDS011;5763;42.714;23.244;2022-07-18T04:00:29;2.40;;;1.20;;
11414;SDS011;5763;42.714;23.244;2022-07-18T04:02:56;1.60;;;1.10;;
11414;SDS011;5763;42.714;23.244;2022-07-18T04:05:23;2.20;;;1.25;;
11414;SDS011;5763;42.714;23.244;2022-07-18T04:07:49;2.25;;;1.40;;
11414;SDS011;5763;42.714;23.244;2022-07-18T04:10:16;2.50;;;1.38;;
11414;SDS011;5763;42.714;23.244;2022-07-18T04:12:48;2.42;;;1.33;;
11414;SDS011;5763;42.714;23.244;2022-07-18T04:15:17;1.10;;;1.00;;
11414;SDS011;5763;42.714;23.244;2022-07-18T04:17:44;2.53;;;1.25;;
11414;SDS011;5763;42.714;23.244;2022-07-18T04:20:12;1.92;;;1.27;;
11414;SDS011;5763;42.714;23.244;2022-07-18T04:22:46;1.23;;;1.10;;
11414;SDS011;5763;42.714;23.244;2022-07-18T04:25:14;2.22;;;1.27;;
11414;SDS011;5763;42.714;23.244;2022-07-18T04:27:41;2.63;;;1.23;;
11414;SDS011;5763;42.714;23.244;2022-07-18T04:30:09;3.97;;;1.25;;
11414;SDS011;5763;42.714;23.244;2022-07-18T04:32:37;2.05;;;1.13;;
11414;SDS011;5763;42.714;23.244;2022-07-18T04:35:04;1.58;;;1.20;;
11414;SDS011;5763;42.714;23.244;2022-07-18T04:37:32;1.58;;;1.08;;
11414;SDS011;5763;42.714;23.244;2022-07-18T04:39:59;1.75;;;1.10;;
11414;SDS011;5763;42.714;23.244;2022-07-18T04:42:27;2.92;;;1.40;;
11414;SDS011;5763;42.714;23.244;2022-07-18T04:44:55;3.08;;;1.35;;
11414;SDS011;5763;42.714;23.244;2022-07-18T04:47:23;2.50;;;1.17;;
11414;SDS011;5763;42.714;23.244;2022-07-18T04:49:50;2.97;;;1.40;;
11414;SDS011;5763;42.714;23.244;2022-07-18T04:52:17;2.78;;;1.20;;
11414;SDS011;5763;42.714;23.244;2022-07-18T04:54:43;3.50;;;1.30;;
11414;SDS011;5763;42.714;23.244;2022-07-18T04:57:11;1.30;;;1.20;;
11414;SDS011;5763;42.714;23.244;2022-07-18T04:59:39;3.15;;;1.88;;
11414;SDS011;5763;42.714;23.244;2022-07-18T05:02:07;3.58;;;1.50;;
11414;SDS011;5763;42.714;23.244;2022-07-18T05:04:35;4.22;;;1.65;;
11414;SDS011;5763;42.714;23.244;2022-07-18T05:07:04;1.75;;;1.02;;
11414;SDS011;5763;42.714;23.244;2022-07-18T05:09:31;1.92;;;1.45;;
11414;SDS011;5763;42.714;23.244;2022-07-18T05:11:58;4.28;;;1.75;;
11414;SDS011;5763;42.714;23.244;2022-07-18T05:14:25;3.65;;;1.30;;
11414;SDS011;5763;42.714;23.244;2022-07-18T05:16:52;1.92;;;1.30;;
11414;SDS011;5763;42.714;23.244;2022-07-18T05:19:18;3.47;;;1.88;;
11414;SDS011;5763;42.714;23.244;2022-07-18T05:21:46;6.28;;;4.32;;
11414;SDS011;5763;42.714;23.244;2022-07-18T05:24:13;7.45;;;4.50;;
11414;SDS011;5763;42.714;23.244;2022-07-18T05:26:40;6.25;;;5.40;;
11414;SDS011;5763;42.714;23.244;2022-07-18T05:29:07;8.02;;;6.15;;
11414;SDS011;5763;42.714;23.244;2022-07-18T05:31:33;4.43;;;3.35;;
11414;SDS011;5763;42.714;23.244;2022-07-18T05:34:00;10.90;;;7.18;;
11414;SDS011;5763;42.714;23.244;2022-07-18T05:36:27;7.18;;;4.35;;
11414;SDS011;5763;42.714;23.244;2022-07-18T05:38:56;3.22;;;2.17;;
11414;SDS011;5763;42.714;23.244;2022-07-18T05:41:23;3.35;;;1.42;;
11414;SDS011;5763;42.714;23.244;2022-07-18T05:43:49;2.22;;;1.58;;
11414;SDS011;5763;42.714;23.244;2022-07-18T05:46:16;2.72;;;2.08;;
11414;SDS011;5763;42.714;23.244;2022-07-18T05:48:43;4.68;;;3.47;;
11414;SDS011;5763;42.714;23.244;2022-07-18T05:51:11;6.90;;;3.28;;
11414;SDS011;5763;42.714;23.244;2022-07-18T05:53:37;4.35;;;2.83;;
11414;SDS011;5763;42.714;23.244;2022-07-18T05:56:06;4.90;;;2.92;;
11414;SDS011;5763;42.714;23.244;2022-07-18T05:58:33;1.40;;;1.30;;
11414;SDS011;5763;42.714;23.244;2022-07-18T06:01:00;2.05;;;1.10;;
11414;SDS011;5763;42.714;23.244;2022-07-18T06:03:27;2.78;;;1.70;;
11414;SDS011;5763;42.714;23.244;2022-07-18T06:05:53;3.90;;;2.67;;
11414;SDS011;5763;42.714;23.244;2022-07-18T06:08:20;4.50;;;2.65;;
11414;SDS011;5763;42.714;23.244;2022-07-18T06:10:47;4.50;;;2.63;;
11414;SDS011;5763;42.714;23.244;2022-07-18T06:13:15;4.00;;;2.00;;
11414;SDS011;5763;42.714;23.244;2022-07-18T06:15:42;2.05;;;1.45;;
11414;SDS011;5763;42.714;23.244;2022-07-18T06:18:08;3.42;;;1.65;;
11414;SDS011;5763;42.714;23.244;2022-07-18T06:20:35;2.65;;;1.83;;
11414;SDS011;5763;42.714;23.244;2022-07-18T06:23:02;4.15;;;1.10;;
11414;SDS011;5763;42.714;23.244;2022-07-18T06:25:29;1.83;;;1.30;;
11414;SDS011;5763;42.714;23.244;2022-07-18T06:27:56;4.75;;;1.40;;
11414;SDS011;5763;42.714;23.244;2022-07-18T06:30:24;4.47;;;1.85;;
11414;SDS011;5763;42.714;23.244;2022-07-18T06:32:51;4.88;;;2.58;;
11414;SDS011;5763;42.714;23.244;2022-07-18T06:35:17;6.18;;;2.78;;
11414;SDS011;5763;42.714;23.244;2022-07-18T06:37:44;3.92;;;2.63;;
11414;SDS011;5763;42.714;23.244;2022-07-18T06:40:11;3.17;;;2.58;;
11414;SDS011;5763;42.714;23.244;2022-07-18T06:42:38;4.30;;;3.10;;
11414;SDS011;5763;42.714;23.244;2022-07-18T06:45:05;2.63;;;1.98;;
11414;SDS011;5763;42.714;23.244;2022-07-18T06:47:34;1.80;;;1.50;;
11414;SDS011;5763;42.714;23.244;2022-07-18T06:50:01;4.03;;;1.50;;
11414;SDS011;5763;42.714;23.244;2022-07-18T06:52:28;1.10;;;1.00;;
11414;SDS011;5763;42.714;23.244;2022-07-18T06:54:55;1.90;;;1.15;;
11414;SDS011;5763;42.714;23.244;2022-07-18T06:57:21;2.17;;;1.70;;
11414;SDS011;5763;42.714;23.244;2022-07-18T06:59:48;2.88;;;1.40;;
11414;SDS011;5763;42.714;23.244;2022-07-18T07:02:15;2.53;;;0.95;;
11414;SDS011;5763;42.714;23.244;2022-07-18T07:04:43;2.40;;;1.38;;
11414;SDS011;5763;42.714;23.244;2022-07-18T07:07:10;2.42;;;1.08;;
11414;SDS011;5763;42.714;23.244;2022-07-18T07:09:36;2.78;;;1.33;;
11414;SDS011;5763;42.714;23.244;2022-07-18T07:12:03;4.30;;;0.98;;
11414;SDS011;5763;42.714;23.244;2022-07-18T07:14:30;3.55;;;1.17;;
11414;SDS011;5763;42.714;23.244;2022-07-18T07:16:57;1.77;;;1.35;;
11414;SDS011;5763;42.714;23.244;2022-07-18T07:19:24;3.13;;;2.08;;
11414;SDS011;5763;42.714;23.244;2022-07-18T07:21:52;1.98;;;1.52;;
11414;SDS011;5763;42.714;23.244;2022-07-18T07:24:18;3.13;;;1.42;;
11414;SDS011;5763;42.714;23.244;2022-07-18T07:26:45;1.23;;;1.05;;
11414;SDS011;5763;42.714;23.244;2022-07-18T07:29:12;1.77;;;0.93;;
11414;SDS011;5763;42.714;23.244;2022-07-18T07:31:40;1.50;;;1.10;;
11414;SDS011;5763;42.714;23.244;2022-07-18T07:34:07;1.20;;;1.00;;
11414;SDS011;5763;42.714;23.244;2022-07-18T07:36:34;2.85;;;1.30;;
11414;SDS011;5763;42.714;23.244;2022-07-18T07:39:02;3.05;;;1.15;;
11414;SDS011;5763;42.714;23.244;2022-07-18T07:41:29;2.28;;;1.60;;
11414;SDS011;5763;42.714;23.244;2022-07-18T07:43:56;1.95;;;1.10;;
11414;SDS011;5763;42.714;23.244;2022-07-18T07:46:23;2.65;;;1.45;;
11414;SDS011;5763;42.714;23.244;2022-07-18T07:48:49;2.70;;;1.67;;
11414;SDS011;5763;42.714;23.244;2022-07-18T07:51:16;1.45;;;1.00;;
11414;SDS011;5763;42.714;23.244;2022-07-18T07:53:43;1.63;;;1.40;;
11414;SDS011;5763;42.714;23.244;2022-07-18T07:56:11;3.13;;;1.60;;
11414;SDS011;5763;42.714;23.244;2022-07-18T07:58:37;1.70;;;1.02;;
11414;SDS011;5763;42.714;23.244;2022-07-18T08:01:04;2.50;;;1.20;;
11414;SDS011;5763;42.714;23.244;2022-07-18T08:03:31;1.40;;;1.00;;
11414;SDS011;5763;42.714;23.244;2022-07-18T08:05:58;1.73;;;1.02;;
11414;SDS011;5763;42.714;23.244;2022-07-18T08:08:25;1.67;;;0.80;;
11414;SDS011;5763;42.714;23.244;2022-07-18T08:10:52;2.35;;;1.10;;
11414;SDS011;5763;42.714;23.244;2022-07-18T08:13:20;2.22;;;1.30;;
11414;SDS011;5763;42.714;23.244;2022-07-18T08:15:47;2.03;;;1.30;;
11414;SDS011;5763;42.714;23.244;2022-07-18T08:18:14;1.70;;;1.30;;
11414;SDS011;5763;42.714;23.244;2022-07-18T08:20:41;2.58;;;1.27;;
11414;SDS011;5763;42.714;23.244;2022-07-18T08:23:08;2.67;;;1.38;;
11414;SDS011;5763;42.714;23.244;2022-07-18T08:25:37;1.65;;;1.55;;
11414;SDS011;5763;42.714;23.244;2022-07-18T08:28:05;2.05;;;1.17;;
11414;SDS011;5763;42.714;23.244;2022-07-18T08:30:34;1.63;;;0.95;;
11414;SDS011;5763;42.714;23.244;2022-07-18T08:33:02;1.08;;;0.82;;
11414;SDS011;5763;42.714;23.244;2022-07-18T08:35:31;1.00;;;0.90;;
11414;SDS011;5763;42.714;23.244;2022-07-18T08:37:58;3.80;;;1.15;;
11414;SDS011;5763;42.714;23.244;2022-07-18T08:40:25;1.75;;;1.00;;
11414;SDS011;5763;42.714;23.244;2022-07-18T08:42:53;1.02;;;0.95;;
11414;SDS011;5763;42.714;23.244;2022-07-18T08:45:22;1.70;;;0.90;;
11414;SDS011;5763;42.714;23.244;2022-07-18T08:47:52;1.63;;;1.05;;
11414;SDS011;5763;42.714;23.244;2022-07-18T08:50:19;1.00;;;0.80;;
11414;SDS011;5763;42.714;23.244;2022-07-18T08:52:46;2.15;;;1.20;;
11414;SDS011;5763;42.714;23.244;2022-07-18T08:55:13;1.23;;;0.80;;
11414;SDS011;5763;42.714;23.244;2022-07-18T08:57:40;4.45;;;1.10;;
11414;SDS011;5763;42.714;23.244;2022-07-18T09:00:08;1.73;;;1.00;;
11414;SDS011;5763;42.714;23.244;2022-07-18T09:02:36;1.75;;;1.38;;
11414;SDS011;5763;42.714;23.244;2022-07-18T09:05:05;1.23;;;0.93;;
11414;SDS011;5763;42.714;23.244;2022-07-18T09:07:42;1.65;;;1.10;;
11414;SDS011;5763;42.714;23.244;2022-07-18T09:10:09;2.70;;;1.10;;
11414;SDS011;5763;42.714;23.244;2022-07-18T09:12:36;1.80;;;0.90;;
11414;SDS011;5763;42.714;23.244;2022-07-18T09:15:04;1.38;;;1.10;;
11414;SDS011;5763;42.714;23.244;2022-07-18T09:17:33;1.98;;;1.40;;
11414;SDS011;5763;42.714;23.244;2022-07-18T09:20:02;1.40;;;1.10;;
11414;SDS011;5763;42.714;23.244;2022-07-18T09:22:34;3.10;;;1.30;;
11414;SDS011;5763;42.714;23.244;2022-07-18T09:25:03;1.35;;;1.20;;
11414;SDS011;5763;42.714;23.244;2022-07-18T09:27:33;1.20;;;1.10;;
11414;SDS011;5763;42.714;23.244;2022-07-18T09:30:07;2.17;;;1.08;;
11414;SDS011;5763;42.714;23.244;2022-07-18T09:32:35;3.25;;;1.40;;
11414;SDS011;5763;42.714;23.244;2022-07-18T09:35:08;1.92;;;1.40;;
11414;SDS011;5763;42.714;23.244;2022-07-18T09:37:37;1.70;;;1.40;;
11414;SDS011;5763;42.714;23.244;2022-07-18T09:40:13;2.50;;;1.23;;
11414;SDS011;5763;42.714;23.244;2022-07-18T09:42:41;1.90;;;1.20;;
11414;SDS011;5763;42.714;23.244;2022-07-18T09:45:08;3.72;;;1.00;;
11414;SDS011;5763;42.714;23.244;2022-07-18T09:47:48;3.78;;;1.52;;
11414;SDS011;5763;42.714;23.244;2022-07-18T09:50:21;2.72;;;1.70;;
11414;SDS011;5763;42.714;23.244;2022-07-18T09:53:02;1.95;;;1.30;;
11414;SDS011;5763;42.714;23.244;2022-07-18T09:55:33;4.47;;;1.20;;
11414;SDS011;5763;42.714;23.244;2022-07-18T09:58:02;5.05;;;1.60;;
11414;SDS011;5763;42.714;23.244;2022-07-18T10:00:32;3.22;;;1.48;;
11414;SDS011;5763;42.714;23.244;2022-07-18T10:03:01;2.10;;;1.40;;
11414;SDS011;5763;42.714;23.244;2022-07-18T10:05:31;2.10;;;1.70;;
11414;SDS011;5763;42.714;23.244;2022-07-18T10:08:01;2.95;;;1.80;;
11414;SDS011;5763;42.714;23.244;2022-07-18T10:10:30;1.92;;;1.75;;
11414;SDS011;5763;42.714;23.244;2022-07-18T10:12:58;3.50;;;1.55;;
11414;SDS011;5763;42.714;23.244;2022-07-18T10:15:27;2.17;;;1.70;;
11414;SDS011;5763;42.714;23.244;2022-07-18T10:17:55;4.22;;;1.55;;
11414;SDS011;5763;42.714;23.244;2022-07-18T10:20:26;2.03;;;1.33;;
11414;SDS011;5763;42.714;23.244;2022-07-18T10:22:59;2.83;;;1.98;;
11414;SDS011;5763;42.714;23.244;2022-07-18T10:25:33;2.42;;;1.60;;
11414;SDS011;5763;42.714;23.244;2022-07-18T10:28:06;2.47;;;1.75;;
11414;SDS011;5763;42.714;23.244;2022-07-18T10:30:36;3.70;;;1.90;;
11414;SDS011;5763;42.714;23.244;2022-07-18T10:36:06;2.35;;;1.58;;
11414;SDS011;5763;42.714;23.244;2022-07-18T10:38:37;4.38;;;1.60;;
11414;SDS011;5763;42.714;23.244;2022-07-18T10:41:06;6.53;;;3.03;;
11414;SDS011;5763;42.714;23.244;2022-07-18T10:43:44;3.38;;;2.22;;
11414;SDS011;5763;42.714;23.244;2022-07-18T10:46:12;5.47;;;2.85;;
11414;SDS011;5763;42.714;23.244;2022-07-18T10:51:31;2.05;;;1.70;;
11414;SDS011;5763;42.714;23.244;2022-07-18T10:54:11;3.17;;;1.73;;
11414;SDS011;5763;42.714;23.244;2022-07-18T10:59:37;3.40;;;2.13;;
11414;SDS011;5763;42.714;23.244;2022-07-18T11:02:29;4.40;;;2.13;;
11414;SDS011;5763;42.714;23.244;2022-07-18T11:05:00;3.65;;;1.75;;
11414;SDS011;5763;42.714;23.244;2022-07-18T11:07:27;2.20;;;1.75;;
11414;SDS011;5763;42.714;23.244;2022-07-18T11:09:56;2.10;;;1.88;;
11414;SDS011;5763;42.714;23.244;2022-07-18T11:12:26;2.40;;;1.80;;
11414;SDS011;5763;42.714;23.244;2022-07-18T11:15:01;2.17;;;1.50;;
11414;SDS011;5763;42.714;23.244;2022-07-18T11:20:25;2.35;;;1.67;;
11414;SDS011;5763;42.714;23.244;2022-07-18T11:22:52;3.10;;;1.63;;
11414;SDS011;5763;42.714;23.244;2022-07-18T11:25:22;3.38;;;1.70;;
11414;SDS011;5763;42.714;23.244;2022-07-18T11:27:52;4.45;;;1.90;;
11414;SDS011;5763;42.714;23.244;2022-07-18T11:30:19;2.63;;;1.85;;
11414;SDS011;5763;42.714;23.244;2022-07-18T11:32:46;3.28;;;2.03;;
11414;SDS011;5763;42.714;23.244;2022-07-18T11:35:14;2.60;;;2.13;;
11414;SDS011;5763;42.714;23.244;2022-07-18T11:37:46;3.78;;;2.00;;
11414;SDS011;5763;42.714;23.244;2022-07-18T11:40:13;3.55;;;1.70;;
11414;SDS011;5763;42.714;23.244;2022-07-18T11:42:42;2.38;;;1.70;;
11414;SDS011;5763;42.714;23.244;2022-07-18T11:45:10;2.85;;;1.88;;
11414;SDS011;5763;42.714;23.244;2022-07-18T11:47:39;2.10;;;1.65;;
11414;SDS011;5763;42.714;23.244;2022-07-18T11:50:11;2.00;;;1.80;;
11414;SDS011;5763;42.714;23.244;2022-07-18T11:52:37;2.92;;;1.75;;
11414;SDS011;5763;42.714;23.244;2022-07-18T11:55:04;3.08;;;2.22;;
11414;SDS011;5763;42.714;23.244;2022-07-18T11:57:33;3.75;;;2.03;;
11414;SDS011;5763;42.714;23.244;2022-07-18T12:00:11;2.22;;;1.80;;
11414;SDS011;5763;42.714;23.244;2022-07-18T12:02:40;2.30;;;1.70;;
11414;SDS011;5763;42.714;23.244;2022-07-18T12:05:07;2.08;;;1.90;;
11414;SDS011;5763;42.714;23.244;2022-07-18T12:07:34;3.65;;;1.73;;
11414;SDS011;5763;42.714;23.244;2022-07-18T12:10:14;1.75;;;1.60;;
11414;SDS011;5763;42.714;23.244;2022-07-18T12:12:41;3.42;;;1.98;;
11414;SDS011;5763;42.714;23.244;2022-07-18T12:15:10;2.13;;;1.90;;
11414;SDS011;5763;42.714;23.244;2022-07-18T12:17:42;5.45;;;3.60;;
11414;SDS011;5763;42.714;23.244;2022-07-18T12:20:11;3.47;;;2.65;;
11414;SDS011;5763;42.714;23.244;2022-07-18T12:28:25;2.33;;;2.00;;
11414;SDS011;5763;42.714;23.244;2022-07-18T12:30:54;1.92;;;1.70;;
11414;SDS011;5763;42.714;23.244;2022-07-18T12:33:21;2.35;;;1.90;;
11414;SDS011;5763;42.714;23.244;2022-07-18T12:35:54;3.90;;;1.92;;
11414;SDS011;5763;42.714;23.244;2022-07-18T12:38:22;3.30;;;1.83;;
11414;SDS011;5763;42.714;23.244;2022-07-18T12:40:50;3.70;;;2.50;;
11414;SDS011;5763;42.714;23.244;2022-07-18T12:43:22;2.67;;;2.05;;
11414;SDS011;5763;42.714;23.244;2022-07-18T12:45:51;3.20;;;2.00;;
11414;SDS011;5763;42.714;23.244;2022-07-18T12:48:20;6.32;;;1.92;;
11414;SDS011;5763;42.714;23.244;2022-07-18T12:50:55;2.50;;;2.30;;
11414;SDS011;5763;42.714;23.244;2022-07-18T12:53:23;2.67;;;1.90;;
11414;SDS011;5763;42.714;23.244;2022-07-18T12:55:50;2.55;;;1.90;;
11414;SDS011;5763;42.714;23.244;2022-07-18T12:58:17;4.43;;;2.00;;
11414;SDS011;5763;42.714;23.244;2022-07-18T13:00:45;3.50;;;2.17;;
11414;SDS011;5763;42.714;23.244;2022-07-18T13:03:12;1.98;;;1.77;;
11414;SDS011;5763;42.714;23.244;2022-07-18T13:05:41;3.33;;;1.90;;
11414;SDS011;5763;42.714;23.244;2022-07-18T13:08:08;4.30;;;2.15;;
11414;SDS011;5763;42.714;23.244;2022-07-18T13:10:36;2.22;;;2.03;;
11414;SDS011;5763;42.714;23.244;2022-07-18T13:13:04;4.03;;;2.10;;
11414;SDS011;5763;42.714;23.244;2022-07-18T13:15:32;4.25;;;2.10;;
11414;SDS011;5763;42.714;23.244;2022-07-18T13:17:59;2.20;;;2.00;;
11414;SDS011;5763;42.714;23.244;2022-07-18T13:20:26;4.10;;;2.35;;
11414;SDS011;5763;42.714;23.244;2022-07-18T13:22:54;2.22;;;2.03;;
11414;SDS011;5763;42.714;23.244;2022-07-18T13:25:21;4.38;;;2.00;;
11414;SDS011;5763;42.714;23.244;2022-07-18T13:27:48;3.60;;;2.05;;
11414;SDS011;5763;42.714;23.244;2022-07-18T13:30:15;2.03;;;1.80;;
11414;SDS011;5763;42.714;23.244;2022-07-18T13:32:42;2.88;;;1.85;;
11414;SDS011;5763;42.714;23.244;2022-07-18T13:35:10;2.17;;;1.98;;
11414;SDS011;5763;42.714;23.244;2022-07-18T13:37:38;2.03;;;1.83;;
11414;SDS011;5763;42.714;23.244;2022-07-18T13:40:07;2.53;;;2.10;;
11414;SDS011;5763;42.714;23.244;2022-07-18T13:42:35;2.67;;;1.70;;
11414;SDS011;5763;42.714;23.244;2022-07-18T13:45:03;2.88;;;1.90;;
11414;SDS011;5763;42.714;23.244;2022-07-18T13:47:30;4.72;;;2.50;;
11414;SDS011;5763;42.714;23.244;2022-07-18T13:49:57;3.90;;;2.00;;
11414;SDS011;5763;42.714;23.244;2022-07-18T13:52:24;4.10;;;2.17;;
11414;SDS011;5763;42.714;23.244;2022-07-18T13:54:51;3.00;;;2.03;;
11414;SDS011;5763;42.714;23.244;2022-07-18T13:57:21;3.28;;;1.98;;
11414;SDS011;5763;42.714;23.244;2022-07-18T13:59:47;2.10;;;1.83;;
11414;SDS011;5763;42.714;23.244;2022-07-18T14:02:14;2.03;;;1.83;;
11414;SDS011;5763;42.714;23.244;2022-07-18T14:04:41;4.07;;;2.00;;
11414;SDS011;5763;42.714;23.244;2022-07-18T14:07:08;3.75;;;2.00;;
11414;SDS011;5763;42.714;23.244;2022-07-18T14:09:36;3.50;;;2.00;;
11414;SDS011;5763;42.714;23.244;2022-07-18T14:12:03;1.92;;;1.73;;
11414;SDS011;5763;42.714;23.244;2022-07-18T14:14:32;2.72;;;2.10;;
11414;SDS011;5763;42.714;23.244;2022-07-18T14:16:59;5.05;;;2.40;;
11414;SDS011;5763;42.714;23.244;2022-07-18T14:19:26;3.97;;;2.13;;
11414;SDS011;5763;42.714;23.244;2022-07-18T14:21:52;3.90;;;2.30;;
11414;SDS011;5763;42.714;23.244;2022-07-18T14:24:20;2.78;;;2.28;;
11414;SDS011;5763;42.714;23.244;2022-07-18T14:26:47;3.50;;;2.05;;
11414;SDS011;5763;42.714;23.244;2022-07-18T14:29:14;3.28;;;2.20;;
11414;SDS011;5763;42.714;23.244;2022-07-18T14:31:42;5.70;;;2.30;;
11414;SDS011;5763;42.714;23.244;2022-07-18T14:34:09;2.83;;;2.38;;
11414;SDS011;5763;42.714;23.244;2022-07-18T14:36:36;3.17;;;2.47;;
11414;SDS011;5763;42.714;23.244;2022-07-18T14:39:03;5.93;;;2.20;;
11414;SDS011;5763;42.714;23.244;2022-07-18T14:41:29;2.60;;;2.10;;
11414;SDS011;5763;42.714;23.244;2022-07-18T14:43:56;3.63;;;2.40;;
11414;SDS011;5763;42.714;23.244;2022-07-18T14:46:23;3.85;;;2.13;;
11414;SDS011;5763;42.714;23.244;2022-07-18T14:48:51;3.75;;;2.28;;
11414;SDS011;5763;42.714;23.244;2022-07-18T14:51:18;3.58;;;2.28;;
11414;SDS011;5763;42.714;23.244;2022-07-18T14:53:44;3.13;;;2.25;;
11414;SDS011;5763;42.714;23.244;2022-07-18T14:56:11;3.85;;;2.40;;
11414;SDS011;5763;42.714;23.244;2022-07-18T14:58:38;2.53;;;2.22;;
11414;SDS011;5763;42.714;23.244;2022-07-18T15:01:05;6.88;;;3.25;;
11414;SDS011;5763;42.714;23.244;2022-07-18T15:03:32;3.85;;;2.83;;
11414;SDS011;5763;42.714;23.244;2022-07-18T15:06:00;3.28;;;2.97;;
11414;SDS011;5763;42.714;23.244;2022-07-18T15:08:27;4.15;;;2.60;;
11414;SDS011;5763;42.714;23.244;2022-07-18T15:10:54;3.50;;;2.40;;